sensor_id;sensor_type;location;lat;lon;timestamp;temperature;humidity
4520;DHT22;2272;49.226;8.108;2023-07-29T00:00:08;17.10;99.90
4520;DHT22;2272;49.226;8.108;2023-07-29T00:02:36;17.10;99.90
4520;DHT22;2272;49.226;8.108;2023-07-29T00:05:03;17.00;99.90
4520;DHT22;2272;49.226;8.108;2023-07-29T00:07:31;17.10;99.90
4520;DHT22;2272;49.226;8.108;2023-07-29T00:09:58;17.10;99.90
4520;DHT22;2272;49.226;8.108;2023-07-29T00:12:25;17.10;99.90
4520;DHT22;2272;49.226;8.108;2023-07-29T00:14:51;17.10;99.90
4520;DHT22;2272;49.226;8.108;2023-07-29T00:17:18;17.10;99.90
4520;DHT22;2272;49.226;8.108;2023-07-29T00:19:46;17.10;99.90
4520;DHT22;2272;49.226;8.108;2023-07-29T00:22:13;17.10;99.90
4520;DHT22;2272;49.226;8.108;2023-07-29T00:24:41;17.10;99.90
4520;DHT22;2272;49.226;8.108;2023-07-29T00:27:08;17.20;99.90
4520;DHT22;2272;49.226;8.108;2023-07-29T00:29:34;17.10;99.90
4520;DHT22;2272;49.226;8.108;2023-07-29T00:32:01;17.20;99.90
4520;DHT22;2272;49.226;8.108;2023-07-29T00:34:28;17.10;99.90
4520;DHT22;2272;49.226;8.108;2023-07-29T00:36:56;17.10;99.90
4520;DHT22;2272;49.226;8.108;2023-07-29T00:39:23;17.20;99.90
4520;DHT22;2272;49.226;8.108;2023-07-29T00:41:51;17.20;99.90
4520;DHT22;2272;49.226;8.108;2023-07-29T00:44:18;17.20;99.90
4520;DHT22;2272;49.226;8.108;2023-07-29T00:46:46;17.30;99.90
4520;DHT22;2272;49.226;8.108;2023-07-29T00:49:13;17.30;99.90
4520;DHT22;2272;49.226;8.108;2023-07-29T00:51:40;17.30;99.90
4520;DHT22;2272;49.226;8.108;2023-07-29T00:54:06;17.30;99.90
4520;DHT22;2272;49.226;8.108;2023-07-29T00:56:33;17.30;99.90
4520;DHT22;2272;49.226;8.108;2023-07-29T00:59:02;17.20;99.90
4520;DHT22;2272;49.226;8.108;2023-07-29T01:01:30;17.10;99.90
4520;DHT22;2272;49.226;8.108;2023-07-29T01:03:57;17.10;99.90
4520;DHT22;2272;49.226;8.108;2023-07-29T01:06:32;17.10;99.90
4520;DHT22;2272;49.226;8.108;2023-07-29T01:09:03;17.00;99.90
4520;DHT22;2272;49.226;8.108;2023-07-29T01:11:38;17.00;99.90
4520;DHT22;2272;49.226;8.108;2023-07-29T01:14:17;17.00;99.90
4520;DHT22;2272;49.226;8.108;2023-07-29T01:16:51;17.00;99.90
4520;DHT22;2272;49.226;8.108;2023-07-29T01:19:28;17.10;99.90
4520;DHT22;2272;49.226;8.108;2023-07-29T01:22:03;17.20;99.90
4520;DHT22;2272;49.226;8.108;2023-07-29T01:24:31;17.10;99.90
4520;DHT22;2272;49.226;8.108;2023-07-29T01:26:58;17.20;99.90
4520;DHT22;2272;49.226;8.108;2023-07-29T01:29:26;17.20;99.90
4520;DHT22;2272;49.226;8.108;2023-07-29T01:31:56;17.10;99.90
4520;DHT22;2272;49.226;8.108;2023-07-29T01:39:31;17.00;99.90
4520;DHT22;2272;49.226;8.108;2023-07-29T01:44:26;17.10;99.90
4520;DHT22;2272;49.226;8.108;2023-07-29T01:46:55;17.10;99.90
4520;DHT22;2272;49.226;8.108;2023-07-29T01:49:22;17.10;99.90
4520;DHT22;2272;49.226;8.108;2023-07-29T01:51:48;17.20;99.90
4520;DHT22;2272;49.226;8.108;2023-07-29T01:54:15;17.20;99.90
4520;DHT22;2272;49.226;8.108;2023-07-29T01:59:11;17.20;99.90
4520;DHT22;2272;49.226;8.108;2023-07-29T02:01:39;17.30;99.90
4520;DHT22;2272;49.226;8.108;2023-07-29T02:04:05;17.30;99.90
4520;DHT22;2272;49.226;8.108;2023-07-29T02:06:32;17.30;99.90
4520;DHT22;2272;49.226;8.108;2023-07-29T02:08:59;17.40;99.90
4520;DHT22;2272;49.226;8.108;2023-07-29T02:11:26;17.40;99.90
4520;DHT22;2272;49.226;8.108;2023-07-29T02:13:55;17.80;99.90
4520;DHT22;2272;49.226;8.108;2023-07-29T02:16:22;17.20;99.90
4520;DHT22;2272;49.226;8.108;2023-07-29T02:18:49;17.50;99.90
4520;DHT22;2272;49.226;8.108;2023-07-29T02:21:16;17.90;99.90
4520;DHT22;2272;49.226;8.108;2023-07-29T02:23:42;17.20;99.90
4520;DHT22;2272;49.226;8.108;2023-07-29T02:26:09;17.40;99.90
4520;DHT22;2272;49.226;8.108;2023-07-29T02:28:36;17.30;99.90
4520;DHT22;2272;49.226;8.108;2023-07-29T02:31:15;17.70;99.90
4520;DHT22;2272;49.226;8.108;2023-07-29T02:33:42;17.20;99.90
4520;DHT22;2272;49.226;8.108;2023-07-29T02:36:09;17.60;99.90
4520;DHT22;2272;49.226;8.108;2023-07-29T02:38:36;17.70;99.90
4520;DHT22;2272;49.226;8.108;2023-07-29T02:41:02;16.80;99.90
4520;DHT22;2272;49.226;8.108;2023-07-29T02:43:29;17.10;99.90
4520;DHT22;2272;49.226;8.108;2023-07-29T02:45:56;17.10;99.90
4520;DHT22;2272;49.226;8.108;2023-07-29T02:48:25;17.60;99.90
4520;DHT22;2272;49.226;8.108;2023-07-29T02:50:52;17.60;99.90
4520;DHT22;2272;49.226;8.108;2023-07-29T02:53:18;17.00;99.90
4520;DHT22;2272;49.226;8.108;2023-07-29T02:55:45;17.30;99.90
4520;DHT22;2272;49.226;8.108;2023-07-29T02:58:12;17.40;99.90
4520;DHT22;2272;49.226;8.108;2023-07-29T03:00:38;17.10;99.90
4520;DHT22;2272;49.226;8.108;2023-07-29T03:03:07;17.60;99.90
4520;DHT22;2272;49.226;8.108;2023-07-29T03:05:35;17.50;99.90
4520;DHT22;2272;49.226;8.108;2023-07-29T03:08:03;17.70;99.90
4520;DHT22;2272;49.226;8.108;2023-07-29T03:10:30;17.70;99.90
4520;DHT22;2272;49.226;8.108;2023-07-29T03:12:57;17.20;99.90
4520;DHT22;2272;49.226;8.108;2023-07-29T03:15:24;18.30;99.90
4520;DHT22;2272;49.226;8.108;2023-07-29T03:17:51;17.70;99.90
4520;DHT22;2272;49.226;8.108;2023-07-29T03:20:19;17.30;99.90
4520;DHT22;2272;49.226;8.108;2023-07-29T03:22:47;17.80;99.90
4520;DHT22;2272;49.226;8.108;2023-07-29T03:25:14;17.60;99.90
4520;DHT22;2272;49.226;8.108;2023-07-29T03:27:41;17.50;99.90
4520;DHT22;2272;49.226;8.108;2023-07-29T03:30:08;17.90;99.90
4520;DHT22;2272;49.226;8.108;2023-07-29T03:32:35;17.50;99.90
4520;DHT22;2272;49.226;8.108;2023-07-29T03:35:01;15.60;99.90
4520;DHT22;2272;49.226;8.108;2023-07-29T03:37:28;17.90;99.90
4520;DHT22;2272;49.226;8.108;2023-07-29T03:39:57;17.40;99.90
4520;DHT22;2272;49.226;8.108;2023-07-29T03:42:24;17.10;99.90
4520;DHT22;2272;49.226;8.108;2023-07-29T03:44:50;17.50;99.90
4520;DHT22;2272;49.226;8.108;2023-07-29T03:47:17;17.30;99.90
4520;DHT22;2272;49.226;8.108;2023-07-29T03:49:44;17.60;99.90
4520;DHT22;2272;49.226;8.108;2023-07-29T03:52:10;17.20;99.90
4520;DHT22;2272;49.226;8.108;2023-07-29T03:54:37;17.70;99.90
4520;DHT22;2272;49.226;8.108;2023-07-29T03:57:06;17.70;99.90
4520;DHT22;2272;49.226;8.108;2023-07-29T03:59:32;17.70;99.90
4520;DHT22;2272;49.226;8.108;2023-07-29T04:01:59;17.40;99.90
4520;DHT22;2272;49.226;8.108;2023-07-29T04:04:26;17.90;99.90
4520;DHT22;2272;49.226;8.108;2023-07-29T04:06:53;17.60;99.90
4520;DHT22;2272;49.226;8.108;2023-07-29T04:09:19;17.90;99.90
4520;DHT22;2272;49.226;8.108;2023-07-29T04:11:46;18.00;99.90
4520;DHT22;2272;49.226;8.108;2023-07-29T04:14:15;17.70;99.90
4520;DHT22;2272;49.226;8.108;2023-07-29T04:16:41;17.70;99.90
4520;DHT22;2272;49.226;8.108;2023-07-29T04:19:08;17.20;99.90
4520;DHT22;2272;49.226;8.108;2023-07-29T04:21:35;17.70;99.90
4520;DHT22;2272;49.226;8.108;2023-07-29T04:24:02;17.40;99.90
4520;DHT22;2272;49.226;8.108;2023-07-29T04:26:29;17.90;99.90
4520;DHT22;2272;49.226;8.108;2023-07-29T04:28:56;17.50;99.90
4520;DHT22;2272;49.226;8.108;2023-07-29T04:38:06;17.60;99.90
4520;DHT22;2272;49.226;8.108;2023-07-29T04:40:33;17.20;99.90
4520;DHT22;2272;49.226;8.108;2023-07-29T04:43:00;17.30;99.90
4520;DHT22;2272;49.226;8.108;2023-07-29T04:45:28;17.60;99.90
4520;DHT22;2272;49.226;8.108;2023-07-29T04:47:55;17.90;99.90
4520;DHT22;2272;49.226;8.108;2023-07-29T04:50:23;17.90;99.90
4520;DHT22;2272;49.226;8.108;2023-07-29T04:53:08;17.60;99.90
4520;DHT22;2272;49.226;8.108;2023-07-29T05:00:47;17.70;99.90
4520;DHT22;2272;49.226;8.108;2023-07-29T05:03:14;17.40;99.90
4520;DHT22;2272;49.226;8.108;2023-07-29T05:05:41;18.10;99.90
4520;DHT22;2272;49.226;8.108;2023-07-29T05:08:09;17.70;99.90
4520;DHT22;2272;49.226;8.108;2023-07-29T05:10:36;17.60;99.90
4520;DHT22;2272;49.226;8.108;2023-07-29T05:13:03;17.80;99.90
4520;DHT22;2272;49.226;8.108;2023-07-29T05:15:30;17.80;99.90
4520;DHT22;2272;49.226;8.108;2023-07-29T05:17:57;18.00;99.90
4520;DHT22;2272;49.226;8.108;2023-07-29T05:20:24;17.90;99.90
4520;DHT22;2272;49.226;8.108;2023-07-29T05:22:50;18.00;99.90
4520;DHT22;2272;49.226;8.108;2023-07-29T05:25:19;18.10;99.90
4520;DHT22;2272;49.226;8.108;2023-07-29T05:27:45;18.40;99.90
4520;DHT22;2272;49.226;8.108;2023-07-29T05:30:12;18.10;99.90
4520;DHT22;2272;49.226;8.108;2023-07-29T05:32:39;18.30;99.90
4520;DHT22;2272;49.226;8.108;2023-07-29T05:35:07;18.20;99.90
4520;DHT22;2272;49.226;8.108;2023-07-29T05:37:34;18.30;99.90
4520;DHT22;2272;49.226;8.108;2023-07-29T05:40:01;18.20;99.90
4520;DHT22;2272;49.226;8.108;2023-07-29T05:42:29;18.70;99.90
4520;DHT22;2272;49.226;8.108;2023-07-29T05:44:56;18.10;99.90
4520;DHT22;2272;49.226;8.108;2023-07-29T05:47:23;18.70;99.90
4520;DHT22;2272;49.226;8.108;2023-07-29T05:49:50;18.50;99.90
4520;DHT22;2272;49.226;8.108;2023-07-29T05:52:20;18.70;99.90
4520;DHT22;2272;49.226;8.108;2023-07-29T05:54:47;18.50;99.90
4520;DHT22;2272;49.226;8.108;2023-07-29T05:57:14;18.90;99.90
4520;DHT22;2272;49.226;8.108;2023-07-29T05:59:43;18.80;99.90
4520;DHT22;2272;49.226;8.108;2023-07-29T06:02:10;19.00;99.90
4520;DHT22;2272;49.226;8.108;2023-07-29T06:04:40;19.20;99.90
4520;DHT22;2272;49.226;8.108;2023-07-29T06:07:07;19.10;99.90
4520;DHT22;2272;49.226;8.108;2023-07-29T06:09:44;19.80;99.90
4520;DHT22;2272;49.226;8.108;2023-07-29T06:12:15;20.00;99.90
4520;DHT22;2272;49.226;8.108;2023-07-29T06:14:45;19.50;99.90
4520;DHT22;2272;49.226;8.108;2023-07-29T06:17:15;20.10;99.90
4520;DHT22;2272;49.226;8.108;2023-07-29T06:19:45;20.00;99.90
4520;DHT22;2272;49.226;8.108;2023-07-29T06:22:12;20.10;99.90
4520;DHT22;2272;49.226;8.108;2023-07-29T06:24:47;20.30;99.90
4520;DHT22;2272;49.226;8.108;2023-07-29T06:27:14;20.90;99.90
4520;DHT22;2272;49.226;8.108;2023-07-29T06:29:50;20.50;99.90
4520;DHT22;2272;49.226;8.108;2023-07-29T06:32:19;20.60;99.90
4520;DHT22;2272;49.226;8.108;2023-07-29T06:37:31;20.70;99.90
4520;DHT22;2272;49.226;8.108;2023-07-29T06:40:03;21.30;99.90
4520;DHT22;2272;49.226;8.108;2023-07-29T06:42:31;20.80;99.90
4520;DHT22;2272;49.226;8.108;2023-07-29T06:45:01;20.70;99.90
4520;DHT22;2272;49.226;8.108;2023-07-29T06:50:12;21.00;99.90
4520;DHT22;2272;49.226;8.108;2023-07-29T06:52:57;21.00;99.90
4520;DHT22;2272;49.226;8.108;2023-07-29T06:56:12;21.10;99.90
4520;DHT22;2272;49.226;8.108;2023-07-29T06:58:47;21.40;99.90
4520;DHT22;2272;49.226;8.108;2023-07-29T07:01:29;21.70;99.90
4520;DHT22;2272;49.226;8.108;2023-07-29T07:04:06;21.80;99.90
4520;DHT22;2272;49.226;8.108;2023-07-29T07:06:33;22.40;99.90
4520;DHT22;2272;49.226;8.108;2023-07-29T07:09:00;22.90;99.90
4520;DHT22;2272;49.226;8.108;2023-07-29T07:11:28;22.70;99.90
4520;DHT22;2272;49.226;8.108;2023-07-29T07:13:54;23.50;99.90
4520;DHT22;2272;49.226;8.108;2023-07-29T07:16:23;23.70;99.90
4520;DHT22;2272;49.226;8.108;2023-07-29T07:18:50;23.20;99.90
4520;DHT22;2272;49.226;8.108;2023-07-29T07:21:17;23.00;99.90
4520;DHT22;2272;49.226;8.108;2023-07-29T07:23:44;22.70;99.90
4520;DHT22;2272;49.226;8.108;2023-07-29T07:26:11;22.40;99.90
4520;DHT22;2272;49.226;8.108;2023-07-29T07:28:38;22.30;99.90
4520;DHT22;2272;49.226;8.108;2023-07-29T07:31:05;22.50;99.90
4520;DHT22;2272;49.226;8.108;2023-07-29T07:33:33;22.40;99.90
4520;DHT22;2272;49.226;8.108;2023-07-29T07:36:00;22.40;99.90
4520;DHT22;2272;49.226;8.108;2023-07-29T07:38:27;22.60;99.90
4520;DHT22;2272;49.226;8.108;2023-07-29T07:40:54;22.80;99.90
4520;DHT22;2272;49.226;8.108;2023-07-29T07:43:22;22.80;99.90
4520;DHT22;2272;49.226;8.108;2023-07-29T07:45:49;22.90;99.90
4520;DHT22;2272;49.226;8.108;2023-07-29T07:48:16;23.00;99.90
4520;DHT22;2272;49.226;8.108;2023-07-29T07:50:44;22.90;99.90
4520;DHT22;2272;49.226;8.108;2023-07-29T07:53:11;23.20;99.90
4520;DHT22;2272;49.226;8.108;2023-07-29T07:55:38;22.70;99.90
4520;DHT22;2272;49.226;8.108;2023-07-29T07:58:05;22.50;99.90
4520;DHT22;2272;49.226;8.108;2023-07-29T08:00:32;22.60;99.90
4520;DHT22;2272;49.226;8.108;2023-07-29T08:02:58;22.70;99.90
4520;DHT22;2272;49.226;8.108;2023-07-29T08:05:25;22.80;99.90
4520;DHT22;2272;49.226;8.108;2023-07-29T08:07:53;22.90;99.90
4520;DHT22;2272;49.226;8.108;2023-07-29T08:10:20;22.70;99.90
4520;DHT22;2272;49.226;8.108;2023-07-29T08:12:47;22.50;99.90
4520;DHT22;2272;49.226;8.108;2023-07-29T08:15:14;22.50;99.90
4520;DHT22;2272;49.226;8.108;2023-07-29T08:17:41;22.70;99.90
4520;DHT22;2272;49.226;8.108;2023-07-29T08:20:08;23.00;99.90
4520;DHT22;2272;49.226;8.108;2023-07-29T08:22:35;23.20;99.90
4520;DHT22;2272;49.226;8.108;2023-07-29T08:25:04;23.50;99.90
4520;DHT22;2272;49.226;8.108;2023-07-29T08:27:33;23.80;99.90
4520;DHT22;2272;49.226;8.108;2023-07-29T08:30:00;24.20;99.90
4520;DHT22;2272;49.226;8.108;2023-07-29T08:32:27;24.70;99.90
4520;DHT22;2272;49.226;8.108;2023-07-29T08:34:53;25.30;99.90
4520;DHT22;2272;49.226;8.108;2023-07-29T08:39:47;26.10;99.90
4520;DHT22;2272;49.226;8.108;2023-07-29T08:42:16;26.10;99.90
4520;DHT22;2272;49.226;8.108;2023-07-29T08:44:49;25.90;99.90
4520;DHT22;2272;49.226;8.108;2023-07-29T08:47:16;25.50;99.90
4520;DHT22;2272;49.226;8.108;2023-07-29T08:49:44;25.30;99.90
4520;DHT22;2272;49.226;8.108;2023-07-29T08:52:11;25.30;99.90
4520;DHT22;2272;49.226;8.108;2023-07-29T08:54:38;25.50;99.90
4520;DHT22;2272;49.226;8.108;2023-07-29T08:57:06;25.40;99.90
4520;DHT22;2272;49.226;8.108;2023-07-29T08:59:34;25.40;99.90
4520;DHT22;2272;49.226;8.108;2023-07-29T09:02:01;25.40;99.90
4520;DHT22;2272;49.226;8.108;2023-07-29T09:04:28;25.40;99.90
4520;DHT22;2272;49.226;8.108;2023-07-29T09:06:56;25.40;99.90
4520;DHT22;2272;49.226;8.108;2023-07-29T09:09:24;25.30;99.90
4520;DHT22;2272;49.226;8.108;2023-07-29T09:11:51;25.20;99.90
4520;DHT22;2272;49.226;8.108;2023-07-29T09:14:18;24.90;99.90
4520;DHT22;2272;49.226;8.108;2023-07-29T09:16:46;24.80;99.90
4520;DHT22;2272;49.226;8.108;2023-07-29T09:19:13;24.70;99.90
4520;DHT22;2272;49.226;8.108;2023-07-29T09:21:40;24.90;99.90
4520;DHT22;2272;49.226;8.108;2023-07-29T09:24:07;25.30;99.90
4520;DHT22;2272;49.226;8.108;2023-07-29T09:26:35;25.90;99.90
4520;DHT22;2272;49.226;8.108;2023-07-29T09:29:02;26.10;99.90
4520;DHT22;2272;49.226;8.108;2023-07-29T09:31:29;26.60;99.90
4520;DHT22;2272;49.226;8.108;2023-07-29T09:33:59;26.90;99.90
4520;DHT22;2272;49.226;8.108;2023-07-29T09:36:27;27.00;99.90
4520;DHT22;2272;49.226;8.108;2023-07-29T09:38:55;27.00;99.90
4520;DHT22;2272;49.226;8.108;2023-07-29T09:41:25;26.80;99.90
4520;DHT22;2272;49.226;8.108;2023-07-29T09:43:56;26.40;99.90
4520;DHT22;2272;49.226;8.108;2023-07-29T09:46:24;26.30;99.90
4520;DHT22;2272;49.226;8.108;2023-07-29T09:48:53;26.20;99.90
4520;DHT22;2272;49.226;8.108;2023-07-29T09:51:21;26.30;99.90
4520;DHT22;2272;49.226;8.108;2023-07-29T09:53:49;26.20;99.90
4520;DHT22;2272;49.226;8.108;2023-07-29T09:56:16;26.20;99.90
4520;DHT22;2272;49.226;8.108;2023-07-29T09:58:44;26.10;99.90
4520;DHT22;2272;49.226;8.108;2023-07-29T10:01:15;25.90;99.90
4520;DHT22;2272;49.226;8.108;2023-07-29T10:03:42;25.90;99.90
4520;DHT22;2272;49.226;8.108;2023-07-29T10:06:11;26.20;99.90
4520;DHT22;2272;49.226;8.108;2023-07-29T10:08:39;26.50;99.90
4520;DHT22;2272;49.226;8.108;2023-07-29T10:11:07;26.70;99.90
4520;DHT22;2272;49.226;8.108;2023-07-29T10:13:35;26.90;99.90
4520;DHT22;2272;49.226;8.108;2023-07-29T10:16:03;26.80;99.90
4520;DHT22;2272;49.226;8.108;2023-07-29T10:18:31;26.90;99.90
4520;DHT22;2272;49.226;8.108;2023-07-29T10:21:00;27.40;99.90
4520;DHT22;2272;49.226;8.108;2023-07-29T10:23:38;27.10;99.90
4520;DHT22;2272;49.226;8.108;2023-07-29T10:26:10;27.20;99.90
4520;DHT22;2272;49.226;8.108;2023-07-29T10:28:40;27.60;99.90
4520;DHT22;2272;49.226;8.108;2023-07-29T10:31:08;27.80;99.90
4520;DHT22;2272;49.226;8.108;2023-07-29T10:33:35;27.80;99.90
4520;DHT22;2272;49.226;8.108;2023-07-29T10:36:03;28.00;99.90
4520;DHT22;2272;49.226;8.108;2023-07-29T10:38:31;27.70;99.90
4520;DHT22;2272;49.226;8.108;2023-07-29T10:40:58;27.20;99.90
4520;DHT22;2272;49.226;8.108;2023-07-29T10:43:32;26.40;99.90
4520;DHT22;2272;49.226;8.108;2023-07-29T10:46:15;25.70;99.90
4520;DHT22;2272;49.226;8.108;2023-07-29T10:48:43;25.00;99.90
4520;DHT22;2272;49.226;8.108;2023-07-29T10:51:25;24.70;99.90
4520;DHT22;2272;49.226;8.108;2023-07-29T10:53:55;24.20;99.90
4520;DHT22;2272;49.226;8.108;2023-07-29T10:56:27;24.40;99.90
4520;DHT22;2272;49.226;8.108;2023-07-29T10:58:57;24.40;99.90
4520;DHT22;2272;49.226;8.108;2023-07-29T11:01:27;24.30;99.90
4520;DHT22;2272;49.226;8.108;2023-07-29T11:09:56;24.70;99.90
4520;DHT22;2272;49.226;8.108;2023-07-29T11:12:43;24.90;99.90
4520;DHT22;2272;49.226;8.108;2023-07-29T11:15:23;25.10;99.90
4520;DHT22;2272;49.226;8.108;2023-07-29T11:17:51;25.20;99.90
4520;DHT22;2272;49.226;8.108;2023-07-29T11:20:19;25.30;99.90
4520;DHT22;2272;49.226;8.108;2023-07-29T11:22:46;25.70;99.90
4520;DHT22;2272;49.226;8.108;2023-07-29T11:25:14;25.60;99.90
4520;DHT22;2272;49.226;8.108;2023-07-29T11:27:41;25.90;99.90
4520;DHT22;2272;49.226;8.108;2023-07-29T11:30:09;26.20;99.90
4520;DHT22;2272;49.226;8.108;2023-07-29T11:32:38;26.30;99.90
4520;DHT22;2272;49.226;8.108;2023-07-29T11:35:07;26.10;99.90
4520;DHT22;2272;49.226;8.108;2023-07-29T11:37:35;26.10;99.90
4520;DHT22;2272;49.226;8.108;2023-07-29T11:40:03;26.20;99.90
4520;DHT22;2272;49.226;8.108;2023-07-29T11:42:32;26.50;99.90
4520;DHT22;2272;49.226;8.108;2023-07-29T11:44:59;26.70;99.90
4520;DHT22;2272;49.226;8.108;2023-07-29T11:47:26;26.70;99.90
4520;DHT22;2272;49.226;8.108;2023-07-29T11:49:59;26.60;99.90
4520;DHT22;2272;49.226;8.108;2023-07-29T11:52:28;26.70;99.90
4520;DHT22;2272;49.226;8.108;2023-07-29T11:54:55;26.70;99.90
4520;DHT22;2272;49.226;8.108;2023-07-29T11:57:22;26.60;99.90
4520;DHT22;2272;49.226;8.108;2023-07-29T11:59:49;26.60;99.90
4520;DHT22;2272;49.226;8.108;2023-07-29T12:02:17;26.80;99.90
4520;DHT22;2272;49.226;8.108;2023-07-29T12:04:47;26.70;99.90
4520;DHT22;2272;49.226;8.108;2023-07-29T12:07:17;26.80;99.90
4520;DHT22;2272;49.226;8.108;2023-07-29T12:09:44;26.90;99.90
4520;DHT22;2272;49.226;8.108;2023-07-29T12:12:11;27.10;99.90
4520;DHT22;2272;49.226;8.108;2023-07-29T12:14:38;27.10;99.90
4520;DHT22;2272;49.226;8.108;2023-07-29T12:17:06;27.40;99.90
4520;DHT22;2272;49.226;8.108;2023-07-29T12:19:33;27.80;99.90
4520;DHT22;2272;49.226;8.108;2023-07-29T12:22:01;27.80;99.90
4520;DHT22;2272;49.226;8.108;2023-07-29T12:24:32;28.00;99.90
4520;DHT22;2272;49.226;8.108;2023-07-29T12:26:59;28.00;99.90
4520;DHT22;2272;49.226;8.108;2023-07-29T12:29:27;27.80;99.90
4520;DHT22;2272;49.226;8.108;2023-07-29T12:31:58;27.40;99.90
4520;DHT22;2272;49.226;8.108;2023-07-29T12:34:26;27.60;99.90
4520;DHT22;2272;49.226;8.108;2023-07-29T12:36:54;27.60;99.90
4520;DHT22;2272;49.226;8.108;2023-07-29T12:39:24;27.50;99.90
4520;DHT22;2272;49.226;8.108;2023-07-29T12:41:54;27.40;99.90
4520;DHT22;2272;49.226;8.108;2023-07-29T12:44:22;27.20;99.90
4520;DHT22;2272;49.226;8.108;2023-07-29T12:46:49;27.30;99.90
4520;DHT22;2272;49.226;8.108;2023-07-29T12:49:17;27.20;99.90
4520;DHT22;2272;49.226;8.108;2023-07-29T12:51:44;27.10;99.90
4520;DHT22;2272;49.226;8.108;2023-07-29T12:54:11;27.00;99.90
4520;DHT22;2272;49.226;8.108;2023-07-29T12:56:38;27.10;99.90
4520;DHT22;2272;49.226;8.108;2023-07-29T12:59:06;27.30;99.90
4520;DHT22;2272;49.226;8.108;2023-07-29T13:01:34;27.50;99.90
4520;DHT22;2272;49.226;8.108;2023-07-29T13:04:01;27.60;99.90
4520;DHT22;2272;49.226;8.108;2023-07-29T13:06:27;27.90;99.90
4520;DHT22;2272;49.226;8.108;2023-07-29T13:08:55;28.20;99.90
4520;DHT22;2272;49.226;8.108;2023-07-29T13:11:21;28.30;99.90
4520;DHT22;2272;49.226;8.108;2023-07-29T13:13:49;28.00;99.90
4520;DHT22;2272;49.226;8.108;2023-07-29T13:16:17;27.60;99.90
4520;DHT22;2272;49.226;8.108;2023-07-29T13:18:44;27.30;99.90
4520;DHT22;2272;49.226;8.108;2023-07-29T13:21:11;27.20;99.90
4520;DHT22;2272;49.226;8.108;2023-07-29T13:23:37;27.40;99.90
4520;DHT22;2272;49.226;8.108;2023-07-29T13:26:04;27.60;99.90
4520;DHT22;2272;49.226;8.108;2023-07-29T13:28:33;27.70;99.90
4520;DHT22;2272;49.226;8.108;2023-07-29T13:31:01;27.70;99.90
4520;DHT22;2272;49.226;8.108;2023-07-29T13:33:30;27.50;99.90
4520;DHT22;2272;49.226;8.108;2023-07-29T13:35:59;27.20;99.90
4520;DHT22;2272;49.226;8.108;2023-07-29T13:38:28;28.00;99.90
4520;DHT22;2272;49.226;8.108;2023-07-29T13:40:56;27.60;99.90
4520;DHT22;2272;49.226;8.108;2023-07-29T13:43:23;27.30;99.90
4520;DHT22;2272;49.226;8.108;2023-07-29T13:45:51;27.60;99.90
4520;DHT22;2272;49.226;8.108;2023-07-29T13:48:20;28.40;99.90
4520;DHT22;2272;49.226;8.108;2023-07-29T13:50:49;28.40;99.90
4520;DHT22;2272;49.226;8.108;2023-07-29T13:53:25;28.40;99.90
4520;DHT22;2272;49.226;8.108;2023-07-29T13:55:52;28.40;99.90
4520;DHT22;2272;49.226;8.108;2023-07-29T13:58:31;28.50;99.90
4520;DHT22;2272;49.226;8.108;2023-07-29T14:00:58;28.90;99.90
4520;DHT22;2272;49.226;8.108;2023-07-29T14:03:27;28.30;99.90
4520;DHT22;2272;49.226;8.108;2023-07-29T14:05:55;28.70;99.90
4520;DHT22;2272;49.226;8.108;2023-07-29T14:08:23;28.80;99.90
4520;DHT22;2272;49.226;8.108;2023-07-29T14:10:50;28.80;99.90
4520;DHT22;2272;49.226;8.108;2023-07-29T14:13:17;28.90;99.90
4520;DHT22;2272;49.226;8.108;2023-07-29T14:15:44;29.80;99.90
4520;DHT22;2272;49.226;8.108;2023-07-29T14:18:24;29.70;99.90
4520;DHT22;2272;49.226;8.108;2023-07-29T14:23:47;29.10;99.90
4520;DHT22;2272;49.226;8.108;2023-07-29T14:26:15;28.90;99.90
4520;DHT22;2272;49.226;8.108;2023-07-29T14:28:57;29.00;99.90
4520;DHT22;2272;49.226;8.108;2023-07-29T14:31:25;29.30;99.90
4520;DHT22;2272;49.226;8.108;2023-07-29T14:33:52;28.70;99.90
4520;DHT22;2272;49.226;8.108;2023-07-29T14:36:20;29.20;99.90
4520;DHT22;2272;49.226;8.108;2023-07-29T14:38:47;29.80;99.90
4520;DHT22;2272;49.226;8.108;2023-07-29T14:41:14;30.70;99.90
4520;DHT22;2272;49.226;8.108;2023-07-29T14:43:41;30.50;99.90
4520;DHT22;2272;49.226;8.108;2023-07-29T14:46:08;31.00;99.90
4520;DHT22;2272;49.226;8.108;2023-07-29T14:48:35;28.90;99.90
4520;DHT22;2272;49.226;8.108;2023-07-29T14:51:02;29.80;99.90
4520;DHT22;2272;49.226;8.108;2023-07-29T14:53:30;28.80;99.90
4520;DHT22;2272;49.226;8.108;2023-07-29T14:58:25;29.00;99.90
4520;DHT22;2272;49.226;8.108;2023-07-29T15:01:00;29.30;99.90
4520;DHT22;2272;49.226;8.108;2023-07-29T15:04:16;31.20;99.90
4520;DHT22;2272;49.226;8.108;2023-07-29T15:06:43;28.10;99.90
4520;DHT22;2272;49.226;8.108;2023-07-29T15:09:12;30.00;99.90
4520;DHT22;2272;49.226;8.108;2023-07-29T15:11:39;29.90;99.90
4520;DHT22;2272;49.226;8.108;2023-07-29T15:14:06;29.70;99.60
4520;DHT22;2272;49.226;8.108;2023-07-29T15:16:33;29.50;99.90
4520;DHT22;2272;49.226;8.108;2023-07-29T15:19:02;29.40;99.70
4520;DHT22;2272;49.226;8.108;2023-07-29T15:21:29;29.40;99.90
4520;DHT22;2272;49.226;8.108;2023-07-29T15:41:58;27.50;99.90
4520;DHT22;2272;49.226;8.108;2023-07-29T15:44:25;27.00;99.90
4520;DHT22;2272;49.226;8.108;2023-07-29T15:46:52;26.60;99.90
4520;DHT22;2272;49.226;8.108;2023-07-29T15:49:21;26.20;99.90
4520;DHT22;2272;49.226;8.108;2023-07-29T15:51:48;27.00;99.90
4520;DHT22;2272;49.226;8.108;2023-07-29T15:54:15;25.50;99.90
4520;DHT22;2272;49.226;8.108;2023-07-29T15:56:42;24.80;99.90
4520;DHT22;2272;49.226;8.108;2023-07-29T15:59:11;24.40;99.90
4520;DHT22;2272;49.226;8.108;2023-07-29T16:01:37;23.80;99.90
4520;DHT22;2272;49.226;8.108;2023-07-29T16:04:04;22.70;99.90
4520;DHT22;2272;49.226;8.108;2023-07-29T16:06:31;21.50;99.90
4520;DHT22;2272;49.226;8.108;2023-07-29T16:08:57;21.10;99.90
4520;DHT22;2272;49.226;8.108;2023-07-29T16:11:31;20.90;99.90
4520;DHT22;2272;49.226;8.108;2023-07-29T16:13:58;20.90;99.90
4520;DHT22;2272;49.226;8.108;2023-07-29T16:16:27;20.80;99.90
4520;DHT22;2272;49.226;8.108;2023-07-29T16:18:54;21.10;99.90
4520;DHT22;2272;49.226;8.108;2023-07-29T16:21:21;21.50;99.90
4520;DHT22;2272;49.226;8.108;2023-07-29T16:23:47;21.70;99.90
4520;DHT22;2272;49.226;8.108;2023-07-29T16:26:18;21.80;99.90
4520;DHT22;2272;49.226;8.108;2023-07-29T16:28:44;21.60;99.90
4520;DHT22;2272;49.226;8.108;2023-07-29T16:31:11;22.20;99.90
4520;DHT22;2272;49.226;8.108;2023-07-29T16:33:41;21.90;99.90
4520;DHT22;2272;49.226;8.108;2023-07-29T16:36:08;21.90;99.90
4520;DHT22;2272;49.226;8.108;2023-07-29T16:38:34;21.90;99.90
4520;DHT22;2272;49.226;8.108;2023-07-29T16:41:01;22.20;99.90
4520;DHT22;2272;49.226;8.108;2023-07-29T16:43:28;22.30;99.90
4520;DHT22;2272;49.226;8.108;2023-07-29T16:45:55;22.10;99.90
4520;DHT22;2272;49.226;8.108;2023-07-29T16:48:22;21.60;99.90
4520;DHT22;2272;49.226;8.108;2023-07-29T16:50:50;21.20;99.90
4520;DHT22;2272;49.226;8.108;2023-07-29T16:53:17;20.80;99.90
4520;DHT22;2272;49.226;8.108;2023-07-29T16:55:44;20.70;99.90
4520;DHT22;2272;49.226;8.108;2023-07-29T16:58:11;20.40;99.90
4520;DHT22;2272;49.226;8.108;2023-07-29T17:00:38;20.20;99.90
4520;DHT22;2272;49.226;8.108;2023-07-29T17:03:05;20.00;99.90
4520;DHT22;2272;49.226;8.108;2023-07-29T17:05:31;19.80;99.90
4520;DHT22;2272;49.226;8.108;2023-07-29T17:08:00;19.60;99.90